sensor_id;sensor_type;location;lat;lon;timestamp;temperature;humidity
20125;DHT22;10223;50.862;4.360;2023-04-03T00:00:28;5.90;99.90
20125;DHT22;10223;50.862;4.360;2023-04-03T00:02:57;6.00;99.90
20125;DHT22;10223;50.862;4.360;2023-04-03T00:05:24;6.00;99.90
20125;DHT22;10223;50.862;4.360;2023-04-03T00:07:51;6.00;99.90
20125;DHT22;10223;50.862;4.360;2023-04-03T00:10:18;6.00;99.90
20125;DHT22;10223;50.862;4.360;2023-04-03T00:12:45;5.90;99.90
20125;DHT22;10223;50.862;4.360;2023-04-03T00:15:12;6.00;99.90
20125;DHT22;10223;50.862;4.360;2023-04-03T00:17:39;5.70;99.90
20125;DHT22;10223;50.862;4.360;2023-04-03T00:20:08;5.60;99.90
20125;DHT22;10223;50.862;4.360;2023-04-03T00:22:35;5.60;99.90
20125;DHT22;10223;50.862;4.360;2023-04-03T00:25:02;5.60;99.90
20125;DHT22;10223;50.862;4.360;2023-04-03T00:27:28;5.60;99.90
20125;DHT22;10223;50.862;4.360;2023-04-03T00:29:55;5.50;99.90
20125;DHT22;10223;50.862;4.360;2023-04-03T00:32:22;5.40;99.90
20125;DHT22;10223;50.862;4.360;2023-04-03T00:34:49;5.30;99.90
20125;DHT22;10223;50.862;4.360;2023-04-03T00:37:18;5.50;99.90
20125;DHT22;10223;50.862;4.360;2023-04-03T00:39:44;5.60;99.90
20125;DHT22;10223;50.862;4.360;2023-04-03T00:42:11;5.40;99.90
20125;DHT22;10223;50.862;4.360;2023-04-03T00:47:42;5.30;99.90
20125;DHT22;10223;50.862;4.360;2023-04-03T00:50:10;5.20;99.90
20125;DHT22;10223;50.862;4.360;2023-04-03T00:52:39;5.20;99.90
20125;DHT22;10223;50.862;4.360;2023-04-03T00:55:08;5.20;99.90
20125;DHT22;10223;50.862;4.360;2023-04-03T00:57:36;5.20;99.90
20125;DHT22;10223;50.862;4.360;2023-04-03T01:00:06;5.20;99.90
20125;DHT22;10223;50.862;4.360;2023-04-03T01:02:35;5.20;99.90
20125;DHT22;10223;50.862;4.360;2023-04-03T01:05:02;5.30;99.90
20125;DHT22;10223;50.862;4.360;2023-04-03T01:07:30;5.20;99.90
20125;DHT22;10223;50.862;4.360;2023-04-03T01:10:02;5.10;99.90
20125;DHT22;10223;50.862;4.360;2023-04-03T01:12:31;5.10;99.90
20125;DHT22;10223;50.862;4.360;2023-04-03T01:15:03;5.00;99.90
20125;DHT22;10223;50.862;4.360;2023-04-03T01:17:32;5.00;99.90
20125;DHT22;10223;50.862;4.360;2023-04-03T01:20:23;4.90;99.90
20125;DHT22;10223;50.862;4.360;2023-04-03T01:23:05;4.90;99.90
20125;DHT22;10223;50.862;4.360;2023-04-03T01:25:35;4.90;99.90
20125;DHT22;10223;50.862;4.360;2023-04-03T01:28:05;4.80;99.90
20125;DHT22;10223;50.862;4.360;2023-04-03T01:30:35;4.80;99.90
20125;DHT22;10223;50.862;4.360;2023-04-03T01:33:05;4.70;99.90
20125;DHT22;10223;50.862;4.360;2023-04-03T01:35:32;4.50;99.90
20125;DHT22;10223;50.862;4.360;2023-04-03T01:37:59;4.50;99.90
20125;DHT22;10223;50.862;4.360;2023-04-03T01:40:26;4.60;99.90
20125;DHT22;10223;50.862;4.360;2023-04-03T01:42:53;4.60;99.90
20125;DHT22;10223;50.862;4.360;2023-04-03T01:45:20;4.70;99.90
20125;DHT22;10223;50.862;4.360;2023-04-03T01:47:47;4.70;99.90
20125;DHT22;10223;50.862;4.360;2023-04-03T01:50:15;4.70;99.90
20125;DHT22;10223;50.862;4.360;2023-04-03T01:52:42;4.70;99.90
20125;DHT22;10223;50.862;4.360;2023-04-03T01:55:09;4.80;99.90
20125;DHT22;10223;50.862;4.360;2023-04-03T01:57:36;4.90;99.90
20125;DHT22;10223;50.862;4.360;2023-04-03T02:00:04;4.90;99.90
20125;DHT22;10223;50.862;4.360;2023-04-03T02:02:31;4.80;99.90
20125;DHT22;10223;50.862;4.360;2023-04-03T02:04:58;4.80;99.90
20125;DHT22;10223;50.862;4.360;2023-04-03T02:07:26;4.70;99.90
20125;DHT22;10223;50.862;4.360;2023-04-03T02:09:53;4.70;99.90
20125;DHT22;10223;50.862;4.360;2023-04-03T02:12:20;5.00;99.90
20125;DHT22;10223;50.862;4.360;2023-04-03T02:14:47;4.80;99.90
20125;DHT22;10223;50.862;4.360;2023-04-03T02:17:15;4.80;99.90
20125;DHT22;10223;50.862;4.360;2023-04-03T02:19:42;4.80;99.90
20125;DHT22;10223;50.862;4.360;2023-04-03T02:22:09;4.80;99.90
20125;DHT22;10223;50.862;4.360;2023-04-03T02:24:37;4.70;99.90
20125;DHT22;10223;50.862;4.360;2023-04-03T02:27:05;4.80;99.90
20125;DHT22;10223;50.862;4.360;2023-04-03T02:29:32;4.70;99.90
20125;DHT22;10223;50.862;4.360;2023-04-03T02:31:59;4.70;99.90
20125;DHT22;10223;50.862;4.360;2023-04-03T02:34:26;4.80;99.90
20125;DHT22;10223;50.862;4.360;2023-04-03T02:36:53;4.70;99.90
20125;DHT22;10223;50.862;4.360;2023-04-03T02:39:20;4.70;99.90
20125;DHT22;10223;50.862;4.360;2023-04-03T02:41:48;4.50;99.90
20125;DHT22;10223;50.862;4.360;2023-04-03T02:44:16;4.60;99.90
20125;DHT22;10223;50.862;4.360;2023-04-03T02:46:44;4.60;99.90
20125;DHT22;10223;50.862;4.360;2023-04-03T02:49:11;4.60;99.90
20125;DHT22;10223;50.862;4.360;2023-04-03T02:51:38;4.70;99.90
20125;DHT22;10223;50.862;4.360;2023-04-03T02:54:05;4.60;99.90
20125;DHT22;10223;50.862;4.360;2023-04-03T02:56:32;4.50;99.90
20125;DHT22;10223;50.862;4.360;2023-04-03T02:59:00;4.60;99.90
20125;DHT22;10223;50.862;4.360;2023-04-03T03:01:27;4.70;99.90
20125;DHT22;10223;50.862;4.360;2023-04-03T03:03:57;4.80;99.90
20125;DHT22;10223;50.862;4.360;2023-04-03T03:06:24;4.90;99.90
20125;DHT22;10223;50.862;4.360;2023-04-03T03:08:51;4.70;99.90
20125;DHT22;10223;50.862;4.360;2023-04-03T03:11:18;4.60;99.90
20125;DHT22;10223;50.862;4.360;2023-04-03T03:13:45;4.70;99.90
20125;DHT22;10223;50.862;4.360;2023-04-03T03:16:13;4.60;99.90
20125;DHT22;10223;50.862;4.360;2023-04-03T03:18:40;4.70;99.90
20125;DHT22;10223;50.862;4.360;2023-04-03T03:21:09;4.70;99.90
20125;DHT22;10223;50.862;4.360;2023-04-03T03:23:36;4.70;99.90
20125;DHT22;10223;50.862;4.360;2023-04-03T03:26:05;4.70;99.90
20125;DHT22;10223;50.862;4.360;2023-04-03T03:28:32;4.60;99.90
20125;DHT22;10223;50.862;4.360;2023-04-03T03:31:00;4.60;99.90
20125;DHT22;10223;50.862;4.360;2023-04-03T03:33:28;4.60;99.90
20125;DHT22;10223;50.862;4.360;2023-04-03T03:35:55;4.90;99.90
20125;DHT22;10223;50.862;4.360;2023-04-03T03:38:23;4.80;99.90
20125;DHT22;10223;50.862;4.360;2023-04-03T03:40:51;4.80;99.90
20125;DHT22;10223;50.862;4.360;2023-04-03T03:43:18;4.80;99.90
20125;DHT22;10223;50.862;4.360;2023-04-03T03:45:50;4.70;99.90
20125;DHT22;10223;50.862;4.360;2023-04-03T03:48:17;4.70;99.90
20125;DHT22;10223;50.862;4.360;2023-04-03T03:50:45;4.80;99.90
20125;DHT22;10223;50.862;4.360;2023-04-03T03:53:12;4.80;99.90
20125;DHT22;10223;50.862;4.360;2023-04-03T03:55:39;4.80;99.90
20125;DHT22;10223;50.862;4.360;2023-04-03T03:58:06;4.70;99.90
20125;DHT22;10223;50.862;4.360;2023-04-03T04:00:33;4.80;99.90
20125;DHT22;10223;50.862;4.360;2023-04-03T04:03:00;4.70;99.90
20125;DHT22;10223;50.862;4.360;2023-04-03T04:05:27;4.60;99.90
20125;DHT22;10223;50.862;4.360;2023-04-03T04:07:55;4.60;99.90
20125;DHT22;10223;50.862;4.360;2023-04-03T04:10:22;4.60;99.90
20125;DHT22;10223;50.862;4.360;2023-04-03T04:12:49;4.40;99.90
20125;DHT22;10223;50.862;4.360;2023-04-03T04:15:16;4.30;99.90
20125;DHT22;10223;50.862;4.360;2023-04-03T04:17:43;4.20;99.90
20125;DHT22;10223;50.862;4.360;2023-04-03T04:20:11;4.30;99.90
20125;DHT22;10223;50.862;4.360;2023-04-03T04:22:38;4.30;99.90
20125;DHT22;10223;50.862;4.360;2023-04-03T04:25:07;4.30;99.90
20125;DHT22;10223;50.862;4.360;2023-04-03T04:27:34;4.20;99.90
20125;DHT22;10223;50.862;4.360;2023-04-03T04:30:03;4.20;99.90
20125;DHT22;10223;50.862;4.360;2023-04-03T04:32:30;4.20;99.90
20125;DHT22;10223;50.862;4.360;2023-04-03T04:34:57;4.20;99.90
20125;DHT22;10223;50.862;4.360;2023-04-03T04:37:24;4.20;99.90
20125;DHT22;10223;50.862;4.360;2023-04-03T04:39:51;4.30;99.90
20125;DHT22;10223;50.862;4.360;2023-04-03T04:42:19;4.20;99.90
20125;DHT22;10223;50.862;4.360;2023-04-03T04:44:46;4.00;99.90
20125;DHT22;10223;50.862;4.360;2023-04-03T04:47:13;4.00;99.90
20125;DHT22;10223;50.862;4.360;2023-04-03T04:49:40;3.90;99.90
20125;DHT22;10223;50.862;4.360;2023-04-03T04:52:07;4.00;99.90
20125;DHT22;10223;50.862;4.360;2023-04-03T04:54:34;4.00;99.90
20125;DHT22;10223;50.862;4.360;2023-04-03T04:57:01;3.90;99.90
20125;DHT22;10223;50.862;4.360;2023-04-03T04:59:29;4.00;99.90
20125;DHT22;10223;50.862;4.360;2023-04-03T05:01:56;3.90;99.90
20125;DHT22;10223;50.862;4.360;2023-04-03T05:04:23;3.90;99.90
20125;DHT22;10223;50.862;4.360;2023-04-03T05:06:50;3.90;99.90
20125;DHT22;10223;50.862;4.360;2023-04-03T05:09:17;3.80;99.90
20125;DHT22;10223;50.862;4.360;2023-04-03T05:11:45;3.80;99.90
20125;DHT22;10223;50.862;4.360;2023-04-03T05:14:12;3.70;99.90
20125;DHT22;10223;50.862;4.360;2023-04-03T05:16:40;3.70;99.90
20125;DHT22;10223;50.862;4.360;2023-04-03T05:19:07;3.80;99.90
20125;DHT22;10223;50.862;4.360;2023-04-03T05:21:34;3.80;99.90
20125;DHT22;10223;50.862;4.360;2023-04-03T05:24:02;3.80;99.90
20125;DHT22;10223;50.862;4.360;2023-04-03T05:26:29;3.80;99.90
20125;DHT22;10223;50.862;4.360;2023-04-03T05:28:56;3.80;99.90
20125;DHT22;10223;50.862;4.360;2023-04-03T05:31:23;3.80;99.90
20125;DHT22;10223;50.862;4.360;2023-04-03T05:33:51;3.90;99.90
20125;DHT22;10223;50.862;4.360;2023-04-03T05:36:18;3.90;99.90
20125;DHT22;10223;50.862;4.360;2023-04-03T05:38:45;4.10;99.90
20125;DHT22;10223;50.862;4.360;2023-04-03T05:41:12;4.10;99.90
20125;DHT22;10223;50.862;4.360;2023-04-03T05:43:39;3.90;99.90
20125;DHT22;10223;50.862;4.360;2023-04-03T05:46:09;3.70;99.90
20125;DHT22;10223;50.862;4.360;2023-04-03T05:48:36;3.70;99.90
20125;DHT22;10223;50.862;4.360;2023-04-03T05:51:05;3.70;99.90
20125;DHT22;10223;50.862;4.360;2023-04-03T05:53:35;3.80;99.90
20125;DHT22;10223;50.862;4.360;2023-04-03T05:56:03;4.00;99.90
20125;DHT22;10223;50.862;4.360;2023-04-03T05:58:30;4.00;99.90
20125;DHT22;10223;50.862;4.360;2023-04-03T06:00:57;3.90;99.90
20125;DHT22;10223;50.862;4.360;2023-04-03T06:03:24;3.90;99.90
20125;DHT22;10223;50.862;4.360;2023-04-03T06:05:51;3.80;99.90
20125;DHT22;10223;50.862;4.360;2023-04-03T06:08:20;3.70;99.90
20125;DHT22;10223;50.862;4.360;2023-04-03T06:10:47;3.70;99.90
20125;DHT22;10223;50.862;4.360;2023-04-03T06:13:14;3.70;99.90
20125;DHT22;10223;50.862;4.360;2023-04-03T06:15:40;3.80;99.90
20125;DHT22;10223;50.862;4.360;2023-04-03T06:18:07;3.90;99.90
20125;DHT22;10223;50.862;4.360;2023-04-03T06:20:35;3.90;99.90
20125;DHT22;10223;50.862;4.360;2023-04-03T06:23:02;3.90;99.90
20125;DHT22;10223;50.862;4.360;2023-04-03T06:25:30;3.80;99.90
20125;DHT22;10223;50.862;4.360;2023-04-03T06:27:57;3.70;99.90
20125;DHT22;10223;50.862;4.360;2023-04-03T06:30:24;3.80;99.90
20125;DHT22;10223;50.862;4.360;2023-04-03T06:32:51;3.80;99.90
20125;DHT22;10223;50.862;4.360;2023-04-03T06:35:18;3.90;99.90
20125;DHT22;10223;50.862;4.360;2023-04-03T06:37:46;3.80;99.90
20125;DHT22;10223;50.862;4.360;2023-04-03T06:40:18;3.90;99.90
20125;DHT22;10223;50.862;4.360;2023-04-03T06:42:47;3.90;99.90
20125;DHT22;10223;50.862;4.360;2023-04-03T06:45:14;3.90;99.90
20125;DHT22;10223;50.862;4.360;2023-04-03T06:47:41;3.90;99.90
20125;DHT22;10223;50.862;4.360;2023-04-03T06:50:10;3.90;99.90
20125;DHT22;10223;50.862;4.360;2023-04-03T06:52:39;4.10;99.90
20125;DHT22;10223;50.862;4.360;2023-04-03T06:55:07;4.00;99.90
20125;DHT22;10223;50.862;4.360;2023-04-03T06:57:35;4.20;99.90
20125;DHT22;10223;50.862;4.360;2023-04-03T07:00:05;4.20;99.90
20125;DHT22;10223;50.862;4.360;2023-04-03T07:02:32;4.30;99.90
20125;DHT22;10223;50.862;4.360;2023-04-03T07:04:59;4.60;99.90
20125;DHT22;10223;50.862;4.360;2023-04-03T07:07:26;5.00;99.90
20125;DHT22;10223;50.862;4.360;2023-04-03T07:09:53;5.70;99.90
20125;DHT22;10223;50.862;4.360;2023-04-03T07:12:20;6.40;99.90
20125;DHT22;10223;50.862;4.360;2023-04-03T07:14:47;6.90;99.90
20125;DHT22;10223;50.862;4.360;2023-04-03T07:17:15;7.00;99.90
20125;DHT22;10223;50.862;4.360;2023-04-03T07:19:42;7.60;99.90
20125;DHT22;10223;50.862;4.360;2023-04-03T07:22:09;8.00;99.90
20125;DHT22;10223;50.862;4.360;2023-04-03T07:24:36;7.60;99.90
20125;DHT22;10223;50.862;4.360;2023-04-03T07:27:03;8.00;99.90
20125;DHT22;10223;50.862;4.360;2023-04-03T07:29:31;8.50;99.90
20125;DHT22;10223;50.862;4.360;2023-04-03T07:31:58;8.50;99.90
20125;DHT22;10223;50.862;4.360;2023-04-03T07:34:26;9.10;99.90
20125;DHT22;10223;50.862;4.360;2023-04-03T07:36:53;9.10;99.90
20125;DHT22;10223;50.862;4.360;2023-04-03T07:39:20;9.20;99.90
20125;DHT22;10223;50.862;4.360;2023-04-03T07:41:47;9.50;99.90
20125;DHT22;10223;50.862;4.360;2023-04-03T07:44:14;9.80;99.90
20125;DHT22;10223;50.862;4.360;2023-04-03T07:46:41;9.80;99.90
20125;DHT22;10223;50.862;4.360;2023-04-03T07:49:09;9.40;99.90
20125;DHT22;10223;50.862;4.360;2023-04-03T07:51:37;9.70;99.90
20125;DHT22;10223;50.862;4.360;2023-04-03T07:54:04;10.40;99.90
20125;DHT22;10223;50.862;4.360;2023-04-03T07:56:31;10.20;99.90
20125;DHT22;10223;50.862;4.360;2023-04-03T07:58:58;9.70;99.90
20125;DHT22;10223;50.862;4.360;2023-04-03T08:01:25;10.10;99.90
20125;DHT22;10223;50.862;4.360;2023-04-03T08:03:53;10.00;99.90
20125;DHT22;10223;50.862;4.360;2023-04-03T08:06:20;10.40;99.90
20125;DHT22;10223;50.862;4.360;2023-04-03T08:08:48;10.60;99.90
20125;DHT22;10223;50.862;4.360;2023-04-03T08:11:15;11.00;99.90
20125;DHT22;10223;50.862;4.360;2023-04-03T08:13:42;11.30;99.90
20125;DHT22;10223;50.862;4.360;2023-04-03T08:16:11;11.50;99.90
20125;DHT22;10223;50.862;4.360;2023-04-03T08:18:38;11.60;99.90
20125;DHT22;10223;50.862;4.360;2023-04-03T08:21:06;11.80;99.90
20125;DHT22;10223;50.862;4.360;2023-04-03T08:23:34;12.40;99.90
20125;DHT22;10223;50.862;4.360;2023-04-03T08:26:07;12.30;99.90
20125;DHT22;10223;50.862;4.360;2023-04-03T08:28:34;12.10;99.90
20125;DHT22;10223;50.862;4.360;2023-04-03T08:31:05;12.10;99.90
20125;DHT22;10223;50.862;4.360;2023-04-03T08:33:33;12.20;99.90
20125;DHT22;10223;50.862;4.360;2023-04-03T08:36:02;12.80;99.90
20125;DHT22;10223;50.862;4.360;2023-04-03T08:38:29;13.00;99.90
20125;DHT22;10223;50.862;4.360;2023-04-03T08:41:02;13.30;99.90
20125;DHT22;10223;50.862;4.360;2023-04-03T08:43:38;13.20;99.90
20125;DHT22;10223;50.862;4.360;2023-04-03T08:46:06;13.20;99.90
20125;DHT22;10223;50.862;4.360;2023-04-03T08:48:41;13.00;99.90
20125;DHT22;10223;50.862;4.360;2023-04-03T08:51:13;12.40;99.90
20125;DHT22;10223;50.862;4.360;2023-04-03T08:53:45;12.40;99.90
20125;DHT22;10223;50.862;4.360;2023-04-03T08:56:15;11.90;99.90
20125;DHT22;10223;50.862;4.360;2023-04-03T08:58:49;12.10;99.90
20125;DHT22;10223;50.862;4.360;2023-04-03T09:01:20;12.00;99.90
20125;DHT22;10223;50.862;4.360;2023-04-03T09:03:48;11.60;99.90
20125;DHT22;10223;50.862;4.360;2023-04-03T09:06:17;11.30;99.90
20125;DHT22;10223;50.862;4.360;2023-04-03T09:08:50;12.20;99.90
20125;DHT22;10223;50.862;4.360;2023-04-03T09:11:22;12.70;99.90
20125;DHT22;10223;50.862;4.360;2023-04-03T09:13:58;13.00;99.90
20125;DHT22;10223;50.862;4.360;2023-04-03T09:16:34;12.50;99.90
20125;DHT22;10223;50.862;4.360;2023-04-03T09:19:09;12.70;99.90
20125;DHT22;10223;50.862;4.360;2023-04-03T09:21:42;12.70;99.90
20125;DHT22;10223;50.862;4.360;2023-04-03T09:24:10;12.70;99.90
20125;DHT22;10223;50.862;4.360;2023-04-03T09:26:42;12.50;99.90
20125;DHT22;10223;50.862;4.360;2023-04-03T09:29:17;12.60;99.90
20125;DHT22;10223;50.862;4.360;2023-04-03T09:31:48;13.20;99.90
20125;DHT22;10223;50.862;4.360;2023-04-03T09:34:20;13.50;99.90
20125;DHT22;10223;50.862;4.360;2023-04-03T09:36:51;13.00;99.90
20125;DHT22;10223;50.862;4.360;2023-04-03T09:39:19;13.30;99.90
20125;DHT22;10223;50.862;4.360;2023-04-03T09:42:01;13.20;99.90
20125;DHT22;10223;50.862;4.360;2023-04-03T09:44:32;12.50;99.90
20125;DHT22;10223;50.862;4.360;2023-04-03T09:46:59;12.30;99.90
20125;DHT22;10223;50.862;4.360;2023-04-03T09:49:43;12.10;99.90
20125;DHT22;10223;50.862;4.360;2023-04-03T09:52:19;11.80;99.90
20125;DHT22;10223;50.862;4.360;2023-04-03T09:54:46;12.00;99.90
20125;DHT22;10223;50.862;4.360;2023-04-03T09:57:13;11.90;99.90
20125;DHT22;10223;50.862;4.360;2023-04-03T09:59:46;12.00;99.90
20125;DHT22;10223;50.862;4.360;2023-04-03T10:02:29;12.00;99.90
20125;DHT22;10223;50.862;4.360;2023-04-03T10:04:57;12.10;99.90
20125;DHT22;10223;50.862;4.360;2023-04-03T10:07:30;12.60;99.90
20125;DHT22;10223;50.862;4.360;2023-04-03T10:09:59;12.60;99.90
20125;DHT22;10223;50.862;4.360;2023-04-03T10:12:27;13.00;99.90
20125;DHT22;10223;50.862;4.360;2023-04-03T10:14:57;12.90;99.90
20125;DHT22;10223;50.862;4.360;2023-04-03T10:17:37;13.20;99.90
20125;DHT22;10223;50.862;4.360;2023-04-03T10:20:21;12.80;99.90
20125;DHT22;10223;50.862;4.360;2023-04-03T10:23:00;12.60;99.90
20125;DHT22;10223;50.862;4.360;2023-04-03T10:25:32;13.00;99.90
20125;DHT22;10223;50.862;4.360;2023-04-03T10:28:04;13.00;99.90
20125;DHT22;10223;50.862;4.360;2023-04-03T10:30:42;13.10;99.90
20125;DHT22;10223;50.862;4.360;2023-04-03T10:33:34;12.50;99.90
20125;DHT22;10223;50.862;4.360;2023-04-03T10:36:10;12.90;99.90
20125;DHT22;10223;50.862;4.360;2023-04-03T10:38:46;13.10;99.90
20125;DHT22;10223;50.862;4.360;2023-04-03T10:41:19;13.40;99.90
20125;DHT22;10223;50.862;4.360;2023-04-03T10:43:56;13.40;99.90
20125;DHT22;10223;50.862;4.360;2023-04-03T10:46:31;13.30;99.90
20125;DHT22;10223;50.862;4.360;2023-04-03T10:49:12;13.60;99.90
20125;DHT22;10223;50.862;4.360;2023-04-03T10:51:44;13.50;99.90
20125;DHT22;10223;50.862;4.360;2023-04-03T10:54:17;13.60;99.90
20125;DHT22;10223;50.862;4.360;2023-04-03T10:56:48;13.40;99.90
20125;DHT22;10223;50.862;4.360;2023-04-03T10:59:23;13.20;99.90
20125;DHT22;10223;50.862;4.360;2023-04-03T11:01:55;13.30;99.90
20125;DHT22;10223;50.862;4.360;2023-04-03T11:04:25;13.80;99.90
20125;DHT22;10223;50.862;4.360;2023-04-03T11:06:58;13.70;99.90
20125;DHT22;10223;50.862;4.360;2023-04-03T11:09:27;13.80;99.90
20125;DHT22;10223;50.862;4.360;2023-04-03T11:12:00;13.70;99.90
20125;DHT22;10223;50.862;4.360;2023-04-03T11:14:30;13.50;99.90
20125;DHT22;10223;50.862;4.360;2023-04-03T11:17:06;13.40;99.90
20125;DHT22;10223;50.862;4.360;2023-04-03T11:19:41;13.60;99.90
20125;DHT22;10223;50.862;4.360;2023-04-03T11:22:13;13.50;99.90
20125;DHT22;10223;50.862;4.360;2023-04-03T11:24:50;13.50;99.90
20125;DHT22;10223;50.862;4.360;2023-04-03T11:27:22;13.70;99.90
20125;DHT22;10223;50.862;4.360;2023-04-03T11:29:52;14.10;99.90
20125;DHT22;10223;50.862;4.360;2023-04-03T11:32:39;13.80;99.90
20125;DHT22;10223;50.862;4.360;2023-04-03T11:35:08;14.20;99.90
20125;DHT22;10223;50.862;4.360;2023-04-03T11:37:39;13.80;99.90
20125;DHT22;10223;50.862;4.360;2023-04-03T11:40:08;13.80;99.90
20125;DHT22;10223;50.862;4.360;2023-04-03T11:42:47;13.40;99.90
20125;DHT22;10223;50.862;4.360;2023-04-03T11:45:29;13.70;99.90
20125;DHT22;10223;50.862;4.360;2023-04-03T11:47:59;14.20;99.90
20125;DHT22;10223;50.862;4.360;2023-04-03T11:50:41;13.80;99.90
20125;DHT22;10223;50.862;4.360;2023-04-03T11:53:32;14.00;99.90
20125;DHT22;10223;50.862;4.360;2023-04-03T11:56:28;14.30;99.90
20125;DHT22;10223;50.862;4.360;2023-04-03T11:59:15;14.40;99.90
20125;DHT22;10223;50.862;4.360;2023-04-03T12:01:45;14.00;99.90
20125;DHT22;10223;50.862;4.360;2023-04-03T12:04:15;14.20;99.90
20125;DHT22;10223;50.862;4.360;2023-04-03T12:12:56;15.00;99.90
20125;DHT22;10223;50.862;4.360;2023-04-03T12:21:12;14.50;97.60
20125;DHT22;10223;50.862;4.360;2023-04-03T12:23:59;14.10;95.00
20125;DHT22;10223;50.862;4.360;2023-04-03T12:26:28;14.30;97.70
20125;DHT22;10223;50.862;4.360;2023-04-03T12:28:57;14.30;95.10
20125;DHT22;10223;50.862;4.360;2023-04-03T12:31:36;14.40;94.10
20125;DHT22;10223;50.862;4.360;2023-04-03T12:34:18;14.10;92.60
20125;DHT22;10223;50.862;4.360;2023-04-03T12:37:01;14.00;91.60
20125;DHT22;10223;50.862;4.360;2023-04-03T12:39:55;14.40;93.30
20125;DHT22;10223;50.862;4.360;2023-04-03T12:45:43;14.30;93.90
20125;DHT22;10223;50.862;4.360;2023-04-03T12:48:15;14.40;92.90
20125;DHT22;10223;50.862;4.360;2023-04-03T12:50:43;14.50;94.60
20125;DHT22;10223;50.862;4.360;2023-04-03T12:53:16;14.90;93.20
20125;DHT22;10223;50.862;4.360;2023-04-03T12:55:45;14.90;92.80
20125;DHT22;10223;50.862;4.360;2023-04-03T12:58:19;14.90;90.20
20125;DHT22;10223;50.862;4.360;2023-04-03T13:00:59;15.10;91.10
20125;DHT22;10223;50.862;4.360;2023-04-03T13:03:26;15.40;91.00
20125;DHT22;10223;50.862;4.360;2023-04-03T13:05:55;15.60;91.20
20125;DHT22;10223;50.862;4.360;2023-04-03T13:08:25;15.40;89.60
20125;DHT22;10223;50.862;4.360;2023-04-03T13:10:56;15.50;90.10
20125;DHT22;10223;50.862;4.360;2023-04-03T13:13:25;16.00;88.10
20125;DHT22;10223;50.862;4.360;2023-04-03T13:15:52;16.50;86.80
20125;DHT22;10223;50.862;4.360;2023-04-03T13:18:29;16.60;84.30
20125;DHT22;10223;50.862;4.360;2023-04-03T13:21:01;16.80;81.90
20125;DHT22;10223;50.862;4.360;2023-04-03T13:23:32;17.10;80.50
20125;DHT22;10223;50.862;4.360;2023-04-03T13:26:02;17.90;79.30
20125;DHT22;10223;50.862;4.360;2023-04-03T13:28:31;18.80;77.50
20125;DHT22;10223;50.862;4.360;2023-04-03T13:31:05;18.80;75.00
20125;DHT22;10223;50.862;4.360;2023-04-03T13:33:36;19.10;72.30
20125;DHT22;10223;50.862;4.360;2023-04-03T13:36:07;19.60;70.80
20125;DHT22;10223;50.862;4.360;2023-04-03T13:38:37;19.30;67.60
20125;DHT22;10223;50.862;4.360;2023-04-03T13:41:21;19.50;66.60
20125;DHT22;10223;50.862;4.360;2023-04-03T13:43:48;19.00;65.70
20125;DHT22;10223;50.862;4.360;2023-04-03T13:46:26;19.20;68.10
20125;DHT22;10223;50.862;4.360;2023-04-03T13:48:55;19.90;66.40
20125;DHT22;10223;50.862;4.360;2023-04-03T13:51:24;20.30;65.60
20125;DHT22;10223;50.862;4.360;2023-04-03T13:53:56;20.00;63.80
20125;DHT22;10223;50.862;4.360;2023-04-03T13:56:27;18.70;65.70
20125;DHT22;10223;50.862;4.360;2023-04-03T13:59:03;19.00;67.50
20125;DHT22;10223;50.862;4.360;2023-04-03T14:01:41;19.70;66.60
20125;DHT22;10223;50.862;4.360;2023-04-03T14:04:15;20.60;64.20
20125;DHT22;10223;50.862;4.360;2023-04-03T14:06:43;21.20;64.50
20125;DHT22;10223;50.862;4.360;2023-04-03T14:09:12;21.60;63.10
20125;DHT22;10223;50.862;4.360;2023-04-03T14:11:40;21.70;60.90
20125;DHT22;10223;50.862;4.360;2023-04-03T14:14:12;21.70;60.00
20125;DHT22;10223;50.862;4.360;2023-04-03T14:16:42;21.20;59.90
20125;DHT22;10223;50.862;4.360;2023-04-03T14:19:18;21.60;61.50
20125;DHT22;10223;50.862;4.360;2023-04-03T14:21:46;20.70;60.50
20125;DHT22;10223;50.862;4.360;2023-04-03T14:24:14;20.30;61.80
20125;DHT22;10223;50.862;4.360;2023-04-03T14:26:42;20.00;62.10
20125;DHT22;10223;50.862;4.360;2023-04-03T14:29:11;21.00;61.00
20125;DHT22;10223;50.862;4.360;2023-04-03T14:31:38;22.10;59.90
20125;DHT22;10223;50.862;4.360;2023-04-03T14:34:05;22.40;59.20
20125;DHT22;10223;50.862;4.360;2023-04-03T14:36:33;21.90;59.10
20125;DHT22;10223;50.862;4.360;2023-04-03T14:39:00;20.60;59.30
20125;DHT22;10223;50.862;4.360;2023-04-03T14:41:28;20.50;60.70
20125;DHT22;10223;50.862;4.360;2023-04-03T14:43:55;20.60;59.40
20125;DHT22;10223;50.862;4.360;2023-04-03T14:46:26;20.20;60.00
20125;DHT22;10223;50.862;4.360;2023-04-03T14:48:54;21.70;60.00
20125;DHT22;10223;50.862;4.360;2023-04-03T14:51:21;21.30;58.90
20125;DHT22;10223;50.862;4.360;2023-04-03T14:53:48;21.50;59.10
20125;DHT22;10223;50.862;4.360;2023-04-03T14:56:18;21.20;59.70
20125;DHT22;10223;50.862;4.360;2023-04-03T14:58:49;21.80;59.30
20125;DHT22;10223;50.862;4.360;2023-04-03T15:01:18;20.90;60.30
20125;DHT22;10223;50.862;4.360;2023-04-03T15:03:45;20.60;60.70
20125;DHT22;10223;50.862;4.360;2023-04-03T15:06:13;21.60;59.70
20125;DHT22;10223;50.862;4.360;2023-04-03T15:08:41;22.60;58.90
20125;DHT22;10223;50.862;4.360;2023-04-03T15:11:09;24.40;57.20
20125;DHT22;10223;50.862;4.360;2023-04-03T15:13:37;22.20;57.90
20125;DHT22;10223;50.862;4.360;2023-04-03T15:16:06;23.60;56.60
20125;DHT22;10223;50.862;4.360;2023-04-03T15:18:38;23.50;57.00
20125;DHT22;10223;50.862;4.360;2023-04-03T15:21:05;21.60;56.60
20125;DHT22;10223;50.862;4.360;2023-04-03T15:23:33;21.40;58.50
20125;DHT22;10223;50.862;4.360;2023-04-03T15:26:00;22.10;57.70
20125;DHT22;10223;50.862;4.360;2023-04-03T15:28:30;22.90;56.60
20125;DHT22;10223;50.862;4.360;2023-04-03T15:30:58;23.50;55.70
20125;DHT22;10223;50.862;4.360;2023-04-03T15:33:26;23.10;54.60
20125;DHT22;10223;50.862;4.360;2023-04-03T15:35:54;23.20;54.60
20125;DHT22;10223;50.862;4.360;2023-04-03T15:38:21;23.00;55.10
20125;DHT22;10223;50.862;4.360;2023-04-03T15:40:48;22.70;55.40
20125;DHT22;10223;50.862;4.360;2023-04-03T15:43:15;23.80;54.10
20125;DHT22;10223;50.862;4.360;2023-04-03T15:45:44;23.10;54.50
20125;DHT22;10223;50.862;4.360;2023-04-03T15:48:12;22.80;53.90
20125;DHT22;10223;50.862;4.360;2023-04-03T15:50:40;21.70;55.10
20125;DHT22;10223;50.862;4.360;2023-04-03T15:53:08;20.90;56.00
20125;DHT22;10223;50.862;4.360;2023-04-03T15:55:38;19.90;56.70
20125;DHT22;10223;50.862;4.360;2023-04-03T15:58:05;21.30;56.80
20125;DHT22;10223;50.862;4.360;2023-04-03T16:00:32;22.40;55.80
20125;DHT22;10223;50.862;4.360;2023-04-03T16:03:00;22.80;56.20
20125;DHT22;10223;50.862;4.360;2023-04-03T16:05:30;22.80;55.10
20125;DHT22;10223;50.862;4.360;2023-04-03T16:07:59;22.80;55.30
20125;DHT22;10223;50.862;4.360;2023-04-03T16:10:27;22.50;55.60